createdAt,value
2018-06-14T00:00:37.283Z,1.47
2018-06-14T00:03:12.492Z,1.60
2018-06-14T00:05:47.532Z,1.50
2018-06-14T00:08:22.608Z,1.53
2018-06-14T00:10:59.152Z,1.67
2018-06-14T00:13:34.111Z,1.40
2018-06-14T00:16:09.063Z,1.63
2018-06-14T00:18:44.184Z,1.40
2018-06-14T00:21:19.248Z,1.60
2018-06-14T00:23:54.351Z,1.50
2018-06-14T00:26:29.300Z,1.60
2018-06-14T00:29:04.479Z,1.57
2018-06-14T00:31:39.540Z,1.60
2018-06-14T00:34:14.582Z,1.43
2018-06-14T00:36:49.504Z,1.27
2018-06-14T00:39:24.552Z,1.43
2018-06-14T00:42:00.427Z,1.20
2018-06-14T00:44:35.331Z,1.33
2018-06-14T00:47:10.373Z,1.20
2018-06-14T00:49:45.412Z,1.57
2018-06-14T00:52:20.504Z,1.27
2018-06-14T00:54:55.555Z,1.40
2018-06-14T00:57:31.676Z,1.60
2018-06-14T01:00:06.603Z,1.70
2018-06-14T01:02:41.531Z,1.63
2018-06-14T01:05:16.563Z,1.47
2018-06-14T01:07:51.604Z,1.50
2018-06-14T01:10:26.543Z,1.50
2018-06-14T01:13:01.471Z,1.80
2018-06-14T01:15:36.549Z,1.50
2018-06-14T01:18:11.625Z,1.63
2018-06-14T01:20:46.596Z,1.40
2018-06-14T01:23:21.532Z,1.43
2018-06-14T01:25:56.564Z,1.53
2018-06-14T01:28:31.615Z,1.40
2018-06-14T01:31:06.664Z,1.37
2018-06-14T01:33:41.591Z,1.70
2018-06-14T01:36:16.501Z,1.60
2018-06-14T01:38:51.537Z,1.40
2018-06-14T01:41:26.446Z,1.70
2018-06-14T01:44:01.502Z,1.63
2018-06-14T01:46:36.509Z,1.33
2018-06-14T01:49:11.544Z,1.50
2018-06-14T01:51:46.459Z,1.70
2018-06-14T01:54:21.376Z,1.30
2018-06-14T01:56:56.410Z,1.43
2018-06-14T01:59:31.468Z,1.40
2018-06-14T02:02:06.363Z,1.37
2018-06-14T02:04:41.456Z,1.50
2018-06-14T02:07:16.675Z,1.70
2018-06-14T02:09:51.723Z,1.50
2018-06-14T02:12:26.761Z,1.70
2018-06-14T02:15:02.080Z,1.70
2018-06-14T02:17:36.995Z,1.57
2018-06-14T02:20:11.920Z,1.53
2018-06-14T02:22:46.944Z,1.40
2018-06-14T02:25:22.004Z,1.57
2018-06-14T02:27:57.038Z,1.57
2018-06-14T02:30:32.048Z,1.60
2018-06-14T02:33:07.076Z,1.60
2018-06-14T02:35:42.124Z,1.50
2018-06-14T02:38:19.430Z,1.50
2018-06-14T02:40:54.569Z,1.40
2018-06-14T02:43:29.486Z,1.50
2018-06-14T02:46:04.705Z,1.70
2018-06-14T02:48:39.621Z,1.53
2018-06-14T02:51:14.668Z,1.40
2018-06-14T02:53:49.703Z,1.57
2018-06-14T02:56:24.628Z,1.60
2018-06-14T02:58:59.564Z,3.03
2018-06-14T03:01:34.653Z,2.23
2018-06-14T03:04:09.588Z,1.87
2018-06-14T03:06:44.649Z,1.50
2018-06-14T03:09:19.675Z,1.50
2018-06-14T03:11:54.596Z,1.60
2018-06-14T03:14:29.655Z,1.50
2018-06-14T03:17:04.600Z,1.50
2018-06-14T03:19:39.532Z,1.50
2018-06-14T03:22:14.624Z,1.77
2018-06-14T03:24:49.827Z,2.30
2018-06-14T03:27:24.892Z,2.43
2018-06-14T03:29:59.936Z,2.70
2018-06-14T03:32:34.869Z,2.50
2018-06-14T03:35:09.941Z,2.17
2018-06-14T03:37:44.979Z,2.10
2018-06-14T03:40:19.911Z,2.77
2018-06-14T03:42:54.968Z,2.20
2018-06-14T03:45:30.451Z,3.40
2018-06-14T03:48:05.384Z,5.90
2018-06-14T03:50:41.412Z,5.93
2018-06-14T03:53:16.452Z,6.30
2018-06-14T03:55:51.500Z,5.93
2018-06-14T03:58:26.467Z,6.13
2018-06-14T04:01:01.449Z,6.30
2018-06-14T04:03:36.494Z,5.77
2018-06-14T04:06:11.524Z,6.07
2018-06-14T04:08:46.540Z,6.17
2018-06-14T04:11:21.636Z,6.73
2018-06-14T04:13:56.683Z,7.67
2018-06-14T04:16:31.740Z,8.97
2018-06-14T04:19:07.275Z,7.73
2018-06-14T04:21:42.360Z,8.07
2018-06-14T04:24:17.303Z,7.63
2018-06-14T04:26:52.351Z,7.03
2018-06-14T04:29:27.280Z,7.37
2018-06-14T04:32:02.337Z,8.03
2018-06-14T04:34:37.264Z,8.37
2018-06-14T04:37:12.300Z,7.90
2018-06-14T04:39:48.005Z,7.20
2018-06-14T04:42:22.940Z,8.07
2018-06-14T04:44:57.984Z,7.90
2018-06-14T04:47:32.900Z,7.60
2018-06-14T04:50:07.959Z,7.27
2018-06-14T04:52:42.888Z,7.80
2018-06-14T04:55:17.936Z,7.37
2018-06-14T04:57:52.990Z,6.80
2018-06-14T05:00:28.020Z,6.63
2018-06-14T05:03:03.137Z,7.20
2018-06-14T05:05:38.200Z,6.77
2018-06-14T05:08:17.640Z,7.07
2018-06-14T05:10:53.576Z,6.60
2018-06-14T05:13:28.612Z,7.20
2018-06-14T05:16:03.773Z,5.90
2018-06-14T05:18:38.693Z,6.70
2018-06-14T05:21:13.600Z,6.77
2018-06-14T05:23:48.694Z,6.67
2018-06-14T05:26:23.728Z,6.60
2018-06-14T05:28:59.350Z,6.70
2018-06-14T05:31:34.280Z,6.63
2018-06-14T05:34:09.205Z,6.13
2018-06-14T05:36:44.284Z,6.87
2018-06-14T05:39:19.404Z,6.27
2018-06-14T05:41:54.585Z,6.30
2018-06-14T05:44:29.651Z,6.40
2018-06-14T05:47:04.704Z,6.23
2018-06-14T05:49:39.827Z,6.60
2018-06-14T05:52:15.029Z,5.73
2018-06-14T05:54:50.037Z,7.20
2018-06-14T05:57:25.225Z,6.50
2018-06-14T06:00:00.307Z,6.43
2018-06-14T06:02:35.444Z,6.87
2018-06-14T06:05:10.597Z,7.10
2018-06-14T06:07:45.773Z,6.37
2018-06-14T06:10:20.737Z,6.67
2018-06-14T06:12:55.736Z,7.23
2018-06-14T06:15:30.775Z,6.10
2018-06-14T06:18:05.924Z,7.03
2018-06-14T06:20:41.055Z,6.73
2018-06-14T06:23:16.096Z,7.10
2018-06-14T06:25:51.286Z,7.53
2018-06-14T06:28:26.416Z,7.60
2018-06-14T06:31:01.525Z,8.83
2018-06-14T06:33:36.436Z,8.53
2018-06-14T06:36:11.576Z,7.93
2018-06-14T06:38:46.682Z,8.00
2018-06-14T06:41:21.708Z,5.87
2018-06-14T06:43:56.656Z,7.00
2018-06-14T06:46:31.669Z,7.00
2018-06-14T06:49:06.588Z,7.67
2018-06-14T06:51:41.652Z,7.40
2018-06-14T06:54:16.564Z,7.93
2018-06-14T06:56:51.644Z,7.20
2018-06-14T06:59:26.764Z,7.93
2018-06-14T07:02:01.885Z,6.97
2018-06-14T07:04:36.992Z,7.57
2018-06-14T07:07:12.080Z,7.27
2018-06-14T07:09:47.191Z,8.20
2018-06-14T07:12:22.248Z,7.63
2018-06-14T07:14:57.312Z,7.53
2018-06-14T07:17:32.347Z,8.40
2018-06-14T07:20:07.276Z,7.57
2018-06-14T07:22:42.311Z,7.33
2018-06-14T07:25:17.244Z,7.30
2018-06-14T07:27:52.279Z,7.43
2018-06-14T07:30:27.387Z,6.87
2018-06-14T07:33:02.560Z,6.90
2018-06-14T07:35:37.648Z,6.60
2018-06-14T07:38:12.635Z,6.30
2018-06-14T07:40:47.531Z,5.97
2018-06-14T07:43:22.597Z,6.00
2018-06-14T07:45:57.655Z,6.17
2018-06-14T07:48:32.605Z,5.83
2018-06-14T07:51:07.595Z,6.03
2018-06-14T07:53:42.512Z,6.83
2018-06-14T07:56:17.580Z,6.70
2018-06-14T07:58:52.536Z,6.50
2018-06-14T08:01:27.593Z,6.23
2018-06-14T08:04:02.700Z,6.13
2018-06-14T08:06:38.180Z,7.13
2018-06-14T08:09:13.244Z,7.13
2018-06-14T08:11:48.156Z,7.80
2018-06-14T08:14:23.192Z,6.43
2018-06-14T08:16:58.139Z,5.90
2018-06-14T08:19:33.172Z,6.47
2018-06-14T08:22:08.100Z,5.93
2018-06-14T08:24:43.031Z,6.30
2018-06-14T08:27:18.004Z,5.83
2018-06-14T08:29:52.934Z,5.30
2018-06-14T08:32:27.861Z,5.90
2018-06-14T08:35:02.824Z,5.90
2018-06-14T08:37:37.774Z,5.07
2018-06-14T08:40:12.797Z,4.20
2018-06-14T08:42:47.843Z,5.00
2018-06-14T08:45:22.940Z,4.07
2018-06-14T08:47:57.859Z,4.40
2018-06-14T08:50:33.015Z,4.33
2018-06-14T08:53:07.948Z,3.50
2018-06-14T08:55:43.010Z,4.57
2018-06-14T09:01:27.887Z,4.27
2018-06-14T09:04:02.953Z,4.00
2018-06-14T09:06:38.052Z,3.77
2018-06-14T09:09:13.204Z,4.57
2018-06-14T09:11:48.200Z,5.33
2018-06-14T09:14:23.361Z,4.00
2018-06-14T09:16:58.934Z,5.10
2018-06-14T09:19:33.961Z,4.27
2018-06-14T09:22:09.092Z,5.30
2018-06-14T09:24:44.088Z,4.77
2018-06-14T09:27:19.037Z,4.30
2018-06-14T09:29:54.043Z,5.03
2018-06-14T09:32:29.056Z,4.80
2018-06-14T09:35:04.114Z,5.27
2018-06-14T09:37:39.048Z,3.30
2018-06-14T09:40:14.080Z,4.70
2018-06-14T09:42:49.208Z,5.77
2018-06-14T09:45:24.200Z,5.20
2018-06-14T09:47:59.228Z,4.97
2018-06-14T09:50:34.259Z,5.30
2018-06-14T09:53:09.352Z,4.93
2018-06-14T09:55:44.419Z,4.83
2018-06-14T09:58:19.471Z,5.30
2018-06-14T10:00:54.393Z,4.67
2018-06-14T10:03:29.423Z,4.63
2018-06-14T10:06:04.527Z,3.97
2018-06-14T10:08:39.564Z,3.70
2018-06-14T10:11:14.626Z,4.30
2018-06-14T10:13:49.535Z,4.00
2018-06-14T10:16:24.795Z,3.60
2018-06-14T10:18:59.708Z,4.33
2018-06-14T10:21:34.732Z,3.53
2018-06-14T10:24:09.863Z,4.30
2018-06-14T10:26:44.820Z,2.77
2018-06-14T10:29:20.031Z,3.77
2018-06-14T10:31:55.064Z,4.07
2018-06-14T10:34:30.162Z,3.83
2018-06-14T10:37:05.152Z,3.50
2018-06-14T10:39:40.243Z,4.03
2018-06-14T10:42:15.441Z,3.90
2018-06-14T10:44:50.383Z,3.70
2018-06-14T10:47:25.448Z,2.70
2018-06-14T10:50:00.898Z,3.60
2018-06-14T10:52:35.892Z,3.63
2018-06-14T10:55:10.908Z,4.20
2018-06-14T10:57:46.052Z,3.40
2018-06-14T11:00:21.132Z,3.40
2018-06-14T11:02:56.048Z,3.27
2018-06-14T11:05:31.128Z,4.13
2018-06-14T11:08:06.064Z,3.37
2018-06-14T11:10:41.100Z,3.50
2018-06-14T11:13:16.098Z,3.47
2018-06-14T11:15:51.053Z,3.67
2018-06-14T11:18:26.108Z,3.20
2018-06-14T11:21:01.018Z,4.13
2018-06-14T11:23:36.068Z,3.63
2018-06-14T11:26:11.100Z,4.30
2018-06-14T11:28:46.160Z,4.53
2018-06-14T11:31:21.075Z,3.13
2018-06-14T11:33:56.123Z,4.17
2018-06-14T11:36:31.552Z,3.80
2018-06-14T11:39:07.308Z,3.50
2018-06-14T11:41:42.234Z,4.50
2018-06-14T11:44:17.292Z,3.80
2018-06-14T11:46:55.374Z,4.20
2018-06-14T11:49:30.412Z,4.47
2018-06-14T11:52:05.447Z,4.50
2018-06-14T11:54:40.366Z,5.13
2018-06-14T11:57:15.410Z,3.37
2018-06-14T11:59:51.716Z,4.30
2018-06-14T12:02:26.800Z,3.57
2018-06-14T12:05:01.873Z,3.97
2018-06-14T12:07:36.915Z,3.70
2018-06-14T12:10:11.836Z,3.60
2018-06-14T12:12:46.764Z,4.13
2018-06-14T12:15:21.836Z,3.10
2018-06-14T12:17:56.905Z,3.33
2018-06-14T12:20:31.819Z,4.10
2018-06-14T12:23:06.872Z,4.50
2018-06-14T12:25:41.808Z,4.43
2018-06-14T12:28:16.839Z,3.97
2018-06-14T12:30:51.952Z,3.83
2018-06-14T12:33:27.024Z,3.40
2018-06-14T12:36:02.098Z,3.10
2018-06-14T12:38:37.064Z,4.10
2018-06-14T12:41:11.964Z,4.03
2018-06-14T12:43:47.012Z,3.60
2018-06-14T12:46:22.064Z,3.30
2018-06-14T12:48:57.110Z,3.60
2018-06-14T12:51:32.104Z,3.17
2018-06-14T12:54:07.028Z,3.20
2018-06-14T12:56:42.119Z,3.50
2018-06-14T12:59:17.174Z,3.07
2018-06-14T13:01:52.235Z,3.47
2018-06-14T13:04:27.304Z,3.60
2018-06-14T13:07:02.234Z,3.10
2018-06-14T13:09:37.156Z,2.53
2018-06-14T13:12:12.218Z,2.50
2018-06-14T13:14:47.282Z,3.13
2018-06-14T13:17:22.372Z,2.70
2018-06-14T13:19:57.423Z,3.13
2018-06-14T13:22:32.468Z,3.33
2018-06-14T13:25:07.525Z,2.63
2018-06-14T13:27:42.628Z,3.23
2018-06-14T13:30:17.675Z,3.27
2018-06-14T13:32:53.368Z,4.80
2018-06-14T13:35:28.410Z,3.27
2018-06-14T13:38:03.529Z,3.70
2018-06-14T13:40:38.637Z,2.97
2018-06-14T13:43:13.612Z,3.00
2018-06-14T13:45:48.694Z,2.60
2018-06-14T13:48:23.763Z,2.80
2018-06-14T13:50:58.802Z,3.00
2018-06-14T13:53:33.724Z,2.93
2018-06-14T13:56:08.784Z,2.47
2018-06-14T13:58:43.698Z,2.93
2018-06-14T14:01:18.752Z,3.03
2018-06-14T14:03:53.968Z,3.00
2018-06-14T14:06:29.212Z,2.20
2018-06-14T14:09:06.308Z,3.33
2018-06-14T14:11:41.721Z,2.77
2018-06-14T14:14:16.678Z,3.40
2018-06-14T14:16:51.736Z,3.13
2018-06-14T14:19:26.703Z,3.07
2018-06-14T14:22:01.607Z,3.20
2018-06-14T14:24:36.545Z,3.10
2018-06-14T14:27:11.614Z,2.77
2018-06-14T14:29:46.672Z,2.90
2018-06-14T14:32:21.711Z,2.90
2018-06-14T14:34:56.636Z,3.20
2018-06-14T14:37:31.688Z,2.93
2018-06-14T14:40:06.604Z,2.87
2018-06-14T14:42:41.664Z,2.90
2018-06-14T14:45:16.564Z,3.00
2018-06-14T14:47:51.609Z,3.03
2018-06-14T14:50:26.523Z,3.50
2018-06-14T14:53:01.605Z,3.90
2018-06-14T14:55:36.641Z,3.37
2018-06-14T14:58:11.575Z,3.67
2018-06-14T15:00:46.616Z,3.50
2018-06-14T15:03:21.697Z,4.07
2018-06-14T15:05:56.596Z,4.60
2018-06-14T15:08:31.549Z,4.53
2018-06-14T15:11:06.456Z,4.33
2018-06-14T15:13:41.513Z,4.33
2018-06-14T15:16:16.579Z,4.57
2018-06-14T15:18:51.533Z,5.10
2018-06-14T15:21:26.629Z,4.83
2018-06-14T15:24:01.706Z,4.83
2018-06-14T15:26:36.633Z,5.10
2018-06-14T15:29:11.672Z,4.80
2018-06-14T15:31:46.728Z,5.53
2018-06-14T15:34:21.666Z,5.87
2018-06-14T15:36:56.743Z,5.53
2018-06-14T15:39:31.816Z,4.90
2018-06-14T15:42:06.866Z,5.57
2018-06-14T15:44:41.804Z,4.77
2018-06-14T15:47:16.759Z,5.57
2018-06-14T15:49:51.823Z,6.13
2018-06-14T15:52:26.756Z,4.20
2018-06-14T15:55:13.124Z,5.00
2018-06-14T15:57:48.168Z,5.67
2018-06-14T16:00:23.229Z,6.00
2018-06-14T16:02:58.290Z,4.77
2018-06-14T16:05:33.425Z,5.37
2018-06-14T16:08:08.427Z,5.27
2018-06-14T16:10:43.559Z,6.30
2018-06-14T16:13:18.997Z,5.20
2018-06-14T16:15:54.137Z,7.00
2018-06-14T16:18:29.191Z,7.37
2018-06-14T16:21:04.116Z,6.03
2018-06-14T16:23:39.160Z,6.30
2018-06-14T16:26:14.152Z,6.90
2018-06-14T16:28:49.267Z,5.53
2018-06-14T16:31:24.329Z,7.30
2018-06-14T16:33:59.276Z,8.00
2018-06-14T16:36:34.352Z,7.53
2018-06-14T16:39:09.657Z,7.60
2018-06-14T16:41:44.673Z,7.20
2018-06-14T16:44:19.775Z,7.57
2018-06-14T16:46:54.612Z,6.83
2018-06-14T16:49:29.504Z,5.77
2018-06-14T16:52:04.787Z,7.43
2018-06-14T16:54:39.856Z,7.33
2018-06-14T16:57:14.835Z,8.83
2018-06-14T16:59:49.928Z,8.37
2018-06-14T17:02:25.100Z,7.97
2018-06-14T17:05:00.189Z,6.80
2018-06-14T17:07:35.150Z,7.10
2018-06-14T17:10:10.288Z,7.00
2018-06-14T17:12:45.422Z,7.30
2018-06-14T17:15:20.854Z,7.57
2018-06-14T17:17:55.804Z,7.83
2018-06-14T17:20:30.986Z,8.60
2018-06-14T17:23:06.344Z,7.93
2018-06-14T17:25:41.556Z,8.33
2018-06-14T17:28:16.644Z,8.03
2018-06-14T17:30:51.720Z,8.10
2018-06-14T17:33:26.847Z,7.83
2018-06-14T17:36:02.380Z,8.13
2018-06-14T17:38:37.645Z,6.47
2018-06-14T17:41:12.680Z,6.50
2018-06-14T17:43:47.687Z,7.90
2018-06-14T17:46:22.841Z,8.93
2018-06-14T17:48:57.745Z,7.63
2018-06-14T17:51:33.107Z,8.53
2018-06-14T17:54:08.256Z,7.17
2018-06-14T17:56:47.110Z,7.37
2018-06-14T17:59:22.118Z,7.40
2018-06-14T18:01:57.404Z,8.07
2018-06-14T18:04:32.121Z,7.53
2018-06-14T18:07:06.986Z,8.13
2018-06-14T18:09:42.089Z,6.93
2018-06-14T18:12:17.176Z,8.80
2018-06-14T18:14:52.233Z,8.53
2018-06-14T18:17:27.192Z,8.60
2018-06-14T18:20:02.372Z,8.37
2018-06-14T18:22:37.467Z,8.93
2018-06-14T18:25:12.750Z,9.23
2018-06-14T18:27:47.716Z,8.03
2018-06-14T18:30:22.712Z,7.27
2018-06-14T18:32:57.617Z,7.50
2018-06-14T18:35:32.703Z,7.90
2018-06-14T18:38:07.810Z,7.20
2018-06-14T18:40:42.879Z,7.20
2018-06-14T18:43:17.856Z,7.43
2018-06-14T18:45:53.084Z,7.50
2018-06-14T18:48:28.025Z,6.97
2018-06-14T18:51:02.985Z,5.40
2018-06-14T18:53:37.992Z,8.23
2018-06-14T18:56:14.257Z,7.03
2018-06-14T18:58:49.427Z,7.73
2018-06-14T19:01:24.825Z,7.70
2018-06-14T19:03:59.837Z,7.73
2018-06-14T19:06:35.067Z,8.23
2018-06-14T19:09:10.806Z,7.47
2018-06-14T19:11:45.799Z,9.80
2018-06-14T19:14:21.233Z,8.23
2018-06-14T19:16:56.370Z,9.53
2018-06-14T19:19:31.550Z,6.03
2018-06-14T19:22:06.581Z,8.90
2018-06-14T19:24:41.697Z,9.03
2018-06-14T19:27:16.855Z,9.20
2018-06-14T19:29:52.080Z,8.63
2018-06-14T19:32:27.107Z,4.63
2018-06-14T19:35:02.146Z,3.87
2018-06-14T19:37:37.115Z,3.57
2018-06-14T19:40:12.239Z,3.20
2018-06-14T19:42:47.364Z,3.10
2018-06-14T19:45:22.519Z,3.63
2018-06-14T19:47:57.497Z,2.83
2018-06-14T19:50:32.647Z,3.10
2018-06-14T19:53:07.751Z,2.90
2018-06-14T19:55:42.741Z,2.93
2018-06-14T19:58:17.764Z,2.87
2018-06-14T20:00:52.740Z,2.73
2018-06-14T20:03:27.743Z,2.50
2018-06-14T20:06:02.997Z,2.57
2018-06-14T20:08:38.097Z,2.37
2018-06-14T20:11:13.108Z,2.27
2018-06-14T20:13:48.220Z,2.50
2018-06-14T20:16:24.023Z,2.83
2018-06-14T20:18:59.012Z,2.53
2018-06-14T20:21:34.228Z,2.80
2018-06-14T20:24:09.272Z,2.37
2018-06-14T20:26:44.417Z,2.40
2018-06-14T20:29:19.583Z,2.10
2018-06-14T20:31:54.660Z,2.73
2018-06-14T20:34:29.821Z,2.73
2018-06-14T20:37:04.865Z,2.33
2018-06-14T20:39:39.868Z,2.40
2018-06-14T20:42:15.059Z,2.40
2018-06-14T20:44:50.276Z,2.30
2018-06-14T20:47:25.414Z,2.33
2018-06-14T20:50:00.465Z,2.07
2018-06-14T20:52:35.454Z,2.30
2018-06-14T20:55:10.455Z,2.40
2018-06-14T20:57:45.285Z,2.40
2018-06-14T21:00:20.422Z,2.07
2018-06-14T21:02:55.694Z,2.50
2018-06-14T21:05:30.794Z,2.20
2018-06-14T21:08:05.981Z,2.50
2018-06-14T21:10:41.186Z,2.53
2018-06-14T21:13:16.317Z,2.30
2018-06-14T21:15:51.410Z,2.20
2018-06-14T21:18:26.518Z,2.40
2018-06-14T21:21:01.706Z,2.33
2018-06-14T21:23:36.747Z,2.10
2018-06-14T21:26:11.719Z,2.40
2018-06-14T21:28:46.684Z,2.20
2018-06-14T21:31:21.796Z,2.10
2018-06-14T21:33:56.956Z,2.80
2018-06-14T21:36:32.132Z,1.93
2018-06-14T21:39:07.864Z,2.67
2018-06-14T21:41:43.071Z,2.40
2018-06-14T21:44:18.220Z,2.40
2018-06-14T21:46:53.227Z,2.73
2018-06-14T21:49:28.233Z,2.07
2018-06-14T21:52:03.288Z,2.37
2018-06-14T21:54:38.368Z,2.17
2018-06-14T21:57:13.547Z,2.00
2018-06-14T21:59:48.537Z,2.60
2018-06-14T22:02:23.731Z,2.27
2018-06-14T22:04:58.921Z,2.33
2018-06-14T22:07:34.022Z,2.33
2018-06-14T22:10:09.179Z,2.57
2018-06-14T22:12:44.271Z,2.33
2018-06-14T22:15:19.240Z,2.30
2018-06-14T22:17:54.195Z,2.40
2018-06-14T22:20:29.319Z,2.30
2018-06-14T22:23:04.344Z,2.03
2018-06-14T22:25:39.365Z,2.10
2018-06-14T22:28:14.508Z,2.07
2018-06-14T22:30:49.640Z,2.10
2018-06-14T22:33:35.965Z,2.27
2018-06-14T22:36:10.973Z,2.10
2018-06-14T22:38:46.128Z,2.00
2018-06-14T22:41:21.099Z,2.27
2018-06-14T22:43:56.114Z,2.60
2018-06-14T22:46:31.165Z,2.00
2018-06-14T22:49:06.326Z,2.10
2018-06-14T22:53:48.062Z,2.27
2018-06-14T22:56:23.149Z,2.20
2018-06-14T22:58:58.108Z,2.07
2018-06-14T23:01:41.613Z,1.90
2018-06-14T23:04:18.021Z,2.37
2018-06-14T23:06:53.251Z,2.07
2018-06-14T23:10:38.335Z,2.20
2018-06-14T23:13:17.581Z,2.20
2018-06-14T23:15:52.654Z,2.20
2018-06-14T23:18:27.761Z,2.10
2018-06-14T23:21:02.850Z,1.90
2018-06-14T23:23:37.998Z,2.03
2018-06-14T23:26:13.012Z,2.10
2018-06-14T23:28:48.111Z,2.20
2018-06-14T23:31:23.082Z,2.10
2018-06-14T23:33:58.261Z,2.43
2018-06-14T23:36:33.333Z,1.90
2018-06-14T23:39:08.612Z,2.33
2018-06-14T23:41:43.698Z,2.20
2018-06-14T23:44:18.895Z,2.40
2018-06-14T23:46:53.923Z,2.23
2018-06-14T23:49:28.933Z,2.10
2018-06-14T23:52:03.965Z,2.00
2018-06-14T23:54:39.088Z,1.87
2018-06-14T23:57:14.188Z,1.87
2018-06-14T23:59:49.644Z,2.20
